Time;durP1;ratioP1;P1;durP2;ratioP2;P2;SDS_P1;SDS_P2;PMS_P1;PMS_P2;Temp;Humidity;BMP_temperature;BMP_pressure;BME280_temperature;BME280_humidity;BME280_pressure;Samples;Min_cycle;Max_cycle;Signal;HPM_P1;HPM_P2
2023/12/30 00:02:07;;;;;;;5.60;1.20;;;;;;;;;;6125622;23;20029;-89
2023/12/30 00:04:33;;;;;;;3.05;1.05;;;;;;;;;;6126634;23;20023;-88
2023/12/30 00:07:05;;;;;;;3.88;1.08;;;;;;;;;;6126466;23;20016;-89
2023/12/30 00:09:31;;;;;;;5.10;1.23;;;;;;;;;;6153048;23;20062;-89
2023/12/30 00:12:03;;;;;;;4.68;1.20;;;;;;;;;;6127674;23;20724;-89
2023/12/30 00:14:29;;;;;;;5.50;1.40;;;;;;;;;;6129599;23;20103;-89
2023/12/30 00:16:58;;;;;;;9.93;1.80;;;;;;;;;;6128916;23;20066;-89
2023/12/30 00:19:24;;;;;;;2.17;0.95;;;;;;;;;;6129311;23;20108;-89
2023/12/30 00:21:50;;;;;;;4.50;1.17;;;;;;;;;;6124795;23;20544;-89
2023/12/30 00:24:19;;;;;;;7.03;1.27;;;;;;;;;;6121735;23;20598;-89
2023/12/30 00:26:45;;;;;;;8.02;1.48;;;;;;;;;;6122859;23;20021;-89
2023/12/30 00:29:14;;;;;;;4.07;1.10;;;;;;;;;;6121907;23;20095;-88
2023/12/30 00:31:40;;;;;;;5.03;1.45;;;;;;;;;;6148729;23;20016;-88
2023/12/30 00:34:06;;;;;;;5.57;1.00;;;;;;;;;;6167475;23;20017;-90
2023/12/30 00:36:32;;;;;;;5.80;1.60;;;;;;;;;;6147684;23;20040;-89
2023/12/30 00:38:58;;;;;;;4.93;1.50;;;;;;;;;;6120610;23;20599;-89
2023/12/30 00:41:24;;;;;;;3.53;1.10;;;;;;;;;;6120644;23;20013;-89
2023/12/30 00:43:50;;;;;;;7.57;1.17;;;;;;;;;;6123631;23;20024;-90
2023/12/30 00:46:17;;;;;;;6.63;1.27;;;;;;;;;;6145753;23;20017;-89
2023/12/30 00:48:43;;;;;;;3.92;1.10;;;;;;;;;;6120813;23;20079;-89
2023/12/30 00:51:09;;;;;;;7.13;1.38;;;;;;;;;;6120949;23;20029;-88
2023/12/30 00:53:35;;;;;;;5.78;1.00;;;;;;;;;;6147763;23;20020;-89
2023/12/30 00:56:01;;;;;;;7.57;1.40;;;;;;;;;;6170269;23;20148;-89
2023/12/30 00:58:27;;;;;;;3.50;1.00;;;;;;;;;;6121812;23;20346;-89
2023/12/30 01:00:55;;;;;;;3.47;1.20;;;;;;;;;;6123712;23;20009;-89
2023/12/30 01:03:20;;;;;;;3.58;1.00;;;;;;;;;;6122628;23;20036;-89
2023/12/30 01:05:46;;;;;;;8.98;1.33;;;;;;;;;;6148135;23;20013;-89
2023/12/30 01:08:12;;;;;;;5.07;0.98;;;;;;;;;;6141397;23;20021;-89
2023/12/30 01:10:39;;;;;;;3.45;1.35;;;;;;;;;;6146970;23;20020;-89
2023/12/30 01:13:05;;;;;;;6.63;1.10;;;;;;;;;;6143826;23;20024;-89
2023/12/30 01:15:31;;;;;;;5.57;1.17;;;;;;;;;;6122514;23;20021;-88
2023/12/30 01:17:57;;;;;;;7.40;1.63;;;;;;;;;;6168669;23;20588;-89
2023/12/30 01:20:23;;;;;;;3.38;1.00;;;;;;;;;;6146544;23;20735;-89
2023/12/30 01:22:49;;;;;;;4.53;1.02;;;;;;;;;;6122603;23;20048;-88
2023/12/30 01:25:15;;;;;;;4.22;1.40;;;;;;;;;;6147113;23;20536;-89
2023/12/30 01:27:41;;;;;;;5.72;1.30;;;;;;;;;;6124432;23;20096;-88
2023/12/30 01:30:08;;;;;;;4.53;0.80;;;;;;;;;;6146125;23;20441;-88
2023/12/30 01:32:34;;;;;;;4.68;1.02;;;;;;;;;;6124578;23;20017;-88
2023/12/30 01:35:00;;;;;;;5.43;1.23;;;;;;;;;;6143933;23;20782;-88
2023/12/30 01:37:26;;;;;;;5.25;1.88;;;;;;;;;;6143492;23;20021;-88
2023/12/30 01:39:52;;;;;;;5.97;1.27;;;;;;;;;;6145729;23;20024;-88
2023/12/30 01:42:18;;;;;;;5.70;1.30;;;;;;;;;;6119259;23;20024;-89
2023/12/30 01:44:44;;;;;;;6.28;0.95;;;;;;;;;;6143779;23;20021;-89
2023/12/30 01:47:10;;;;;;;6.38;1.13;;;;;;;;;;6119889;23;20068;-89
2023/12/30 01:49:36;;;;;;;6.20;1.10;;;;;;;;;;6123068;23;20072;-89
2023/12/30 01:52:02;;;;;;;4.10;1.17;;;;;;;;;;6120406;23;20461;-89
2023/12/30 01:54:28;;;;;;;4.80;0.90;;;;;;;;;;6122202;23;20017;-88
2023/12/30 01:56:54;;;;;;;6.35;1.45;;;;;;;;;;6121572;23;20108;-88
2023/12/30 01:59:20;;;;;;;1.95;0.90;;;;;;;;;;6121052;23;20017;-89
2023/12/30 02:01:46;;;;;;;4.60;1.23;;;;;;;;;;6121915;23;20013;-89
2023/12/30 02:04:12;;;;;;;4.28;1.10;;;;;;;;;;6118229;23;20441;-88
2023/12/30 02:06:39;;;;;;;6.47;1.20;;;;;;;;;;6121566;23;20021;-89
2023/12/30 02:09:06;;;;;;;6.72;1.23;;;;;;;;;;6120394;23;20044;-88
2023/12/30 02:11:32;;;;;;;3.90;0.77;;;;;;;;;;6122963;23;20024;-89
2023/12/30 02:13:58;;;;;;;5.70;0.77;;;;;;;;;;6143699;23;20017;-88
2023/12/30 02:16:23;;;;;;;3.33;1.25;;;;;;;;;;6145094;23;20041;-88
2023/12/30 02:18:49;;;;;;;6.85;1.08;;;;;;;;;;6147792;23;20064;-89
2023/12/30 02:21:15;;;;;;;6.03;1.10;;;;;;;;;;6119892;23;20071;-89
2023/12/30 02:23:41;;;;;;;6.03;1.55;;;;;;;;;;6146775;23;20079;-89
2023/12/30 02:26:08;;;;;;;3.90;0.80;;;;;;;;;;6144909;23;20017;-89
2023/12/30 02:28:34;;;;;;;6.90;1.05;;;;;;;;;;6147207;23;20420;-89
2023/12/30 02:31:00;;;;;;;8.13;1.58;;;;;;;;;;6120438;23;20023;-89
2023/12/30 02:33:26;;;;;;;4.10;0.90;;;;;;;;;;6124249;23;20404;-89
2023/12/30 02:35:52;;;;;;;5.22;1.10;;;;;;;;;;6125275;23;20016;-89
2023/12/30 02:38:18;;;;;;;4.90;0.93;;;;;;;;;;6145390;23;20402;-89
2023/12/30 02:40:47;;;;;;;4.55;0.88;;;;;;;;;;6147137;23;20023;-89
2023/12/30 02:43:13;;;;;;;2.67;0.98;;;;;;;;;;6122528;23;20055;-89
2023/12/30 02:45:40;;;;;;;8.35;1.17;;;;;;;;;;6146786;23;20438;-89
2023/12/30 02:48:06;;;;;;;7.93;1.10;;;;;;;;;;6118987;23;20028;-89
2023/12/30 02:50:32;;;;;;;3.60;1.15;;;;;;;;;;6123095;23;20339;-89
2023/12/30 02:52:58;;;;;;;5.18;1.10;;;;;;;;;;6120303;23;20025;-89
2023/12/30 02:55:24;;;;;;;5.68;1.40;;;;;;;;;;6123175;23;20021;-89
2023/12/30 02:57:50;;;;;;;5.95;1.02;;;;;;;;;;6123156;23;20056;-88
2023/12/30 03:00:16;;;;;;;5.43;1.27;;;;;;;;;;6145324;23;20439;-89
2023/12/30 03:02:42;;;;;;;4.57;1.27;;;;;;;;;;6173578;23;20017;-89
2023/12/30 03:05:09;;;;;;;5.75;1.00;;;;;;;;;;6121313;23;20087;-88
2023/12/30 03:07:36;;;;;;;5.20;1.30;;;;;;;;;;6123992;23;20021;-88
2023/12/30 03:10:03;;;;;;;2.77;1.10;;;;;;;;;;6121199;23;20017;-88
2023/12/30 03:12:29;;;;;;;2.25;0.98;;;;;;;;;;6124777;23;21044;-88
2023/12/30 03:14:55;;;;;;;1.77;0.93;;;;;;;;;;6123252;23;20048;-88
2023/12/30 03:17:21;;;;;;;3.88;1.15;;;;;;;;;;6123086;23;20017;-88
2023/12/30 03:19:47;;;;;;;5.25;1.70;;;;;;;;;;6151487;23;20039;-89
2023/12/30 03:22:13;;;;;;;3.78;1.42;;;;;;;;;;6125870;23;20446;-88
2023/12/30 03:24:39;;;;;;;7.90;1.10;;;;;;;;;;6128466;23;20021;-89
2023/12/30 03:27:05;;;;;;;5.45;1.35;;;;;;;;;;6149390;23;20020;-88
2023/12/30 03:29:31;;;;;;;4.43;1.75;;;;;;;;;;6126377;23;20027;-88
2023/12/30 03:31:57;;;;;;;7.43;1.33;;;;;;;;;;6125803;23;20017;-89
2023/12/30 03:34:23;;;;;;;5.93;1.23;;;;;;;;;;6127665;23;20345;-89
2023/12/30 03:36:49;;;;;;;6.35;1.08;;;;;;;;;;6128569;23;20024;-88
2023/12/30 03:39:15;;;;;;;5.78;1.10;;;;;;;;;;6127759;23;20770;-89
2023/12/30 03:41:41;;;;;;;6.55;1.42;;;;;;;;;;6152638;23;20095;-89
2023/12/30 03:44:07;;;;;;;5.82;1.05;;;;;;;;;;6124818;23;20035;-88
2023/12/30 03:46:33;;;;;;;4.93;1.33;;;;;;;;;;6127936;23;20093;-88
2023/12/30 03:48:59;;;;;;;4.68;0.90;;;;;;;;;;6125493;23;20096;-89
2023/12/30 03:51:25;;;;;;;8.85;1.08;;;;;;;;;;6177964;23;20017;-88
2023/12/30 03:53:51;;;;;;;8.13;1.30;;;;;;;;;;6176650;23;20412;-89
2023/12/30 03:56:17;;;;;;;5.80;1.85;;;;;;;;;;6126303;23;20016;-89
2023/12/30 03:58:43;;;;;;;6.78;1.10;;;;;;;;;;6129179;23;20050;-88
2023/12/30 04:01:09;;;;;;;4.15;1.25;;;;;;;;;;6150592;23;20502;-88
2023/12/30 04:03:35;;;;;;;5.85;0.95;;;;;;;;;;6128191;23;20099;-89
2023/12/30 04:06:01;;;;;;;7.82;1.17;;;;;;;;;;6126751;23;20019;-88
2023/12/30 04:08:27;;;;;;;3.85;0.90;;;;;;;;;;6128600;23;20013;-88
2023/12/30 04:10:53;;;;;;;2.80;1.00;;;;;;;;;;6127004;23;20012;-88
2023/12/30 04:13:19;;;;;;;4.25;1.10;;;;;;;;;;6124868;23;20029;-89
2023/12/30 04:15:45;;;;;;;8.48;1.58;;;;;;;;;;6152162;23;20021;-89
2023/12/30 04:18:11;;;;;;;3.38;0.93;;;;;;;;;;6125811;23;20361;-87
2023/12/30 04:20:37;;;;;;;6.35;1.20;;;;;;;;;;6122082;23;20063;-88
2023/12/30 04:23:03;;;;;;;11.73;1.20;;;;;;;;;;6120957;23;20072;-88
2023/12/30 04:25:29;;;;;;;7.68;1.20;;;;;;;;;;6143326;23;20092;-88
2023/12/30 04:27:56;;;;;;;9.68;1.17;;;;;;;;;;6121400;23;20048;-88
2023/12/30 04:30:22;;;;;;;5.00;1.10;;;;;;;;;;6121841;23;20027;-89
2023/12/30 04:32:48;;;;;;;4.95;1.52;;;;;;;;;;6145185;23;20450;-88
2023/12/30 04:35:14;;;;;;;7.80;1.10;;;;;;;;;;6119838;23;20516;-88
2023/12/30 04:37:40;;;;;;;3.35;1.17;;;;;;;;;;6146956;23;20096;-89
2023/12/30 04:40:06;;;;;;;14.73;1.33;;;;;;;;;;6144458;23;20083;-89
2023/12/30 04:42:32;;;;;;;6.88;1.50;;;;;;;;;;6124087;23;20067;-89
2023/12/30 04:44:58;;;;;;;7.60;0.98;;;;;;;;;;6144087;23;20017;-89
2023/12/30 04:47:24;;;;;;;7.05;1.42;;;;;;;;;;6119836;23;20021;-89
2023/12/30 04:49:50;;;;;;;5.90;1.42;;;;;;;;;;6145547;23;20024;-88
2023/12/30 04:52:16;;;;;;;6.32;1.92;;;;;;;;;;6145170;23;20021;-89
2023/12/30 04:54:42;;;;;;;7.13;1.17;;;;;;;;;;6122261;23;20052;-89
2023/12/30 04:57:08;;;;;;;6.40;1.67;;;;;;;;;;6143443;23;20079;-89
2023/12/30 04:59:35;;;;;;;4.82;1.00;;;;;;;;;;6148849;23;20020;-89
2023/12/30 05:02:01;;;;;;;10.30;1.35;;;;;;;;;;6120251;23;20381;-89
2023/12/30 05:04:27;;;;;;;4.78;1.20;;;;;;;;;;6169911;23;20017;-89
2023/12/30 05:06:53;;;;;;;4.05;1.15;;;;;;;;;;6143216;23;20009;-89
2023/12/30 05:09:20;;;;;;;4.03;0.88;;;;;;;;;;6117485;23;20027;-89
2023/12/30 05:11:48;;;;;;;3.92;0.90;;;;;;;;;;6122172;23;20063;-89
2023/12/30 05:14:15;;;;;;;5.18;1.10;;;;;;;;;;6143715;23;20048;-89
2023/12/30 05:16:45;;;;;;;4.72;1.08;;;;;;;;;;6119739;23;20334;-88
2023/12/30 05:19:11;;;;;;;5.15;1.15;;;;;;;;;;6142713;23;20067;-89
2023/12/30 05:21:37;;;;;;;6.15;1.13;;;;;;;;;;6122644;23;20408;-89
2023/12/30 05:24:04;;;;;;;4.65;1.30;;;;;;;;;;6143809;23;20079;-89
2023/12/30 05:26:30;;;;;;;3.17;1.00;;;;;;;;;;6145703;23;20017;-89
2023/12/30 05:28:57;;;;;;;3.25;1.02;;;;;;;;;;6144267;23;20028;-89
2023/12/30 05:31:23;;;;;;;6.78;1.58;;;;;;;;;;6122293;23;20127;-89
2023/12/30 05:33:49;;;;;;;4.95;1.15;;;;;;;;;;6146702;23;20032;-89
2023/12/30 05:36:15;;;;;;;9.18;1.58;;;;;;;;;;6119278;23;20013;-88
2023/12/30 05:38:41;;;;;;;5.60;1.20;;;;;;;;;;6120931;23;20489;-90
2023/12/30 05:41:07;;;;;;;5.88;1.02;;;;;;;;;;6120561;23;20017;-89
2023/12/30 05:43:33;;;;;;;5.50;1.33;;;;;;;;;;6122808;23;20017;-89
2023/12/30 05:45:59;;;;;;;8.05;1.23;;;;;;;;;;6119164;23;20384;-89
2023/12/30 05:48:25;;;;;;;5.32;1.10;;;;;;;;;;6170602;23;20020;-88
2023/12/30 05:50:51;;;;;;;9.85;1.90;;;;;;;;;;6121525;23;20067;-89
2023/12/30 05:53:18;;;;;;;6.63;1.20;;;;;;;;;;6118012;23;20025;-89
2023/12/30 05:55:44;;;;;;;6.07;1.30;;;;;;;;;;6121525;23;20024;-89
2023/12/30 05:58:10;;;;;;;6.55;1.63;;;;;;;;;;6118881;23;20021;-89
2023/12/30 06:00:36;;;;;;;3.50;1.17;;;;;;;;;;6149374;23;20017;-88
2023/12/30 06:03:02;;;;;;;7.97;1.30;;;;;;;;;;6120500;23;20005;-89
2023/12/30 06:05:28;;;;;;;2.67;1.27;;;;;;;;;;6147818;23;20442;-89
2023/12/30 06:07:54;;;;;;;4.82;1.30;;;;;;;;;;6123918;23;20021;-89
2023/12/30 06:10:23;;;;;;;4.90;0.95;;;;;;;;;;6147898;23;20021;-90
2023/12/30 06:12:49;;;;;;;8.25;1.63;;;;;;;;;;6123699;23;20021;-89
2023/12/30 06:15:15;;;;;;;3.25;1.08;;;;;;;;;;6120227;23;20032;-89
2023/12/30 06:17:41;;;;;;;4.65;1.08;;;;;;;;;;6172682;23;20013;-89
2023/12/30 06:20:08;;;;;;;9.45;1.52;;;;;;;;;;6120756;23;20024;-89
2023/12/30 06:22:34;;;;;;;5.90;1.77;;;;;;;;;;6125628;23;20406;-89
2023/12/30 06:25:00;;;;;;;6.75;1.77;;;;;;;;;;6145519;23;20063;-89
2023/12/30 06:27:26;;;;;;;7.00;1.17;;;;;;;;;;6171202;23;20017;-89
2023/12/30 06:29:52;;;;;;;7.65;1.60;;;;;;;;;;6121557;23;20017;-88
2023/12/30 06:32:18;;;;;;;4.10;1.00;;;;;;;;;;6121070;23;20025;-88
2023/12/30 06:34:44;;;;;;;7.63;1.42;;;;;;;;;;6147577;23;20353;-89
2023/12/30 06:37:10;;;;;;;8.98;1.65;;;;;;;;;;6144940;23;20017;-89
2023/12/30 06:39:36;;;;;;;6.60;1.48;;;;;;;;;;6146954;23;20114;-89
2023/12/30 06:42:02;;;;;;;6.22;1.10;;;;;;;;;;6170378;23;20337;-88
2023/12/30 06:44:28;;;;;;;6.47;1.10;;;;;;;;;;6146789;23;20021;-89
2023/12/30 06:46:54;;;;;;;6.97;1.48;;;;;;;;;;6171424;23;20075;-89
2023/12/30 06:49:20;;;;;;;5.40;1.30;;;;;;;;;;6120675;23;20016;-89
2023/12/30 06:51:47;;;;;;;9.13;1.35;;;;;;;;;;6122050;23;20017;-88
2023/12/30 06:54:13;;;;;;;6.55;1.35;;;;;;;;;;6119863;23;20017;-88
2023/12/30 06:56:39;;;;;;;5.68;1.08;;;;;;;;;;6123509;23;20025;-88
2023/12/30 06:59:05;;;;;;;11.45;1.40;;;;;;;;;;6144444;23;20073;-88
2023/12/30 07:01:31;;;;;;;7.88;1.30;;;;;;;;;;6122564;23;20013;-88
2023/12/30 07:03:57;;;;;;;8.82;1.65;;;;;;;;;;6119880;23;20017;-89
2023/12/30 07:06:23;;;;;;;5.35;2.08;;;;;;;;;;6122588;23;20013;-89
2023/12/30 07:08:49;;;;;;;13.35;2.10;;;;;;;;;;6118924;23;20013;-88
2023/12/30 07:11:15;;;;;;;9.02;1.10;;;;;;;;;;6118698;23;20072;-89
2023/12/30 07:13:41;;;;;;;5.43;1.08;;;;;;;;;;6147122;23;20021;-89
2023/12/30 07:16:07;;;;;;;4.13;1.02;;;;;;;;;;6119149;23;20028;-88
2023/12/30 07:18:33;;;;;;;7.70;1.13;;;;;;;;;;6145863;23;20464;-88
2023/12/30 07:20:59;;;;;;;10.23;1.63;;;;;;;;;;6119666;23;20066;-88
2023/12/30 07:23:25;;;;;;;3.78;1.05;;;;;;;;;;6124572;23;20044;-88
2023/12/30 07:25:51;;;;;;;9.18;1.55;;;;;;;;;;6124069;23;20012;-88
2023/12/30 07:28:19;;;;;;;8.07;1.05;;;;;;;;;;6115048;23;20024;-89
2023/12/30 07:30:46;;;;;;;9.00;1.23;;;;;;;;;;6120578;23;20092;-88
2023/12/30 07:33:13;;;;;;;5.43;1.10;;;;;;;;;;6118326;23;20066;-88
2023/12/30 07:35:41;;;;;;;11.27;1.95;;;;;;;;;;6147122;23;20052;-90
2023/12/30 07:38:08;;;;;;;6.78;1.58;;;;;;;;;;6120633;23;20024;-88
2023/12/30 07:40:36;;;;;;;4.35;0.93;;;;;;;;;;6124776;23;20017;-89
2023/12/30 07:43:04;;;;;;;8.33;1.60;;;;;;;;;;6121292;23;20499;-89
2023/12/30 07:45:40;;;;;;;2.45;1.10;;;;;;;;;;6172061;23;20043;-87
2023/12/30 07:48:07;;;;;;;3.78;1.10;;;;;;;;;;6146752;23;20021;-90
2023/12/30 07:50:34;;;;;;;6.82;1.15;;;;;;;;;;6148770;23;20016;-88
2023/12/30 07:53:02;;;;;;;6.88;1.38;;;;;;;;;;6148731;23;20021;-89
2023/12/30 07:55:29;;;;;;;9.40;1.77;;;;;;;;;;6174977;23;20060;-89
2023/12/30 07:57:57;;;;;;;6.50;1.45;;;;;;;;;;6149660;23;20017;-89
2023/12/30 08:00:24;;;;;;;11.80;1.70;;;;;;;;;;6127197;23;20088;-89
2023/12/30 08:02:51;;;;;;;3.65;1.23;;;;;;;;;;6127674;23;20013;-90
2023/12/30 08:05:19;;;;;;;8.27;1.60;;;;;;;;;;6148494;23;20021;-89
2023/12/30 08:07:46;;;;;;;6.78;1.10;;;;;;;;;;6125626;23;20017;-90
2023/12/30 08:10:13;;;;;;;6.28;1.60;;;;;;;;;;6170376;23;20323;-88
2023/12/30 08:12:40;;;;;;;7.38;1.60;;;;;;;;;;6149545;23;20442;-89
2023/12/30 08:15:09;;;;;;;8.45;1.60;;;;;;;;;;6124154;23;20020;-89
2023/12/30 08:17:36;;;;;;;;;;;;;;;;;;6150991;23;20021;-89
2023/12/30 08:20:04;;;;;;;9.45;1.40;;;;;;;;;;6151014;23;19994;-89
2023/12/30 08:22:31;;;;;;;8.38;1.42;;;;;;;;;;6154880;23;20017;-89
2023/12/30 08:24:58;;;;;;;3.45;1.20;;;;;;;;;;6174847;23;20341;-89
2023/12/30 08:27:25;;;;;;;7.85;1.45;;;;;;;;;;6129692;23;20358;-89
2023/12/30 08:29:53;;;;;;;5.40;1.17;;;;;;;;;;6128751;23;20020;-88
2023/12/30 08:32:20;;;;;;;6.05;1.23;;;;;;;;;;6153057;23;20024;-90
2023/12/30 08:34:47;;;;;;;7.60;1.40;;;;;;;;;;6130105;23;20342;-89
2023/12/30 08:37:14;;;;;;;5.00;1.50;;;;;;;;;;6126309;23;20016;-89
2023/12/30 08:39:42;;;;;;;5.82;1.20;;;;;;;;;;6129731;23;20070;-89
2023/12/30 08:42:09;;;;;;;7.43;1.33;;;;;;;;;;6152037;23;20020;-89
2023/12/30 08:44:40;;;;;;;4.43;1.73;;;;;;;;;;6154977;23;20345;-89
2023/12/30 08:47:09;;;;;;;9.95;1.65;;;;;;;;;;6154095;23;20389;-89
2023/12/30 08:49:37;;;;;;;4.80;1.77;;;;;;;;;;6129927;23;20385;-89
2023/12/30 08:52:04;;;;;;;6.50;1.55;;;;;;;;;;6128658;23;20063;-89
2023/12/30 08:54:32;;;;;;;6.00;1.20;;;;;;;;;;6153049;23;20124;-89
2023/12/30 08:56:59;;;;;;;5.28;0.98;;;;;;;;;;6152109;23;20376;-89
2023/12/30 08:59:26;;;;;;;7.13;1.48;;;;;;;;;;6129391;23;20031;-89
2023/12/30 09:01:53;;;;;;;6.93;1.60;;;;;;;;;;6155504;23;20590;-90
2023/12/30 09:04:21;;;;;;;9.18;1.70;;;;;;;;;;6127891;23;20013;-89
2023/12/30 09:06:48;;;;;;;10.32;1.73;;;;;;;;;;6130666;23;20024;-89
2023/12/30 09:09:15;;;;;;;5.03;1.63;;;;;;;;;;6125047;23;20028;-89
2023/12/30 09:11:43;;;;;;;6.55;1.30;;;;;;;;;;6154294;23;20009;-89
2023/12/30 09:14:10;;;;;;;8.20;1.52;;;;;;;;;;6126922;23;20021;-89
2023/12/30 09:16:37;;;;;;;6.20;1.50;;;;;;;;;;6128447;23;20447;-89
2023/12/30 09:19:05;;;;;;;4.47;1.63;;;;;;;;;;6127003;23;20039;-89
2023/12/30 09:21:32;;;;;;;7.20;1.92;;;;;;;;;;6128599;23;20453;-89
2023/12/30 09:23:59;;;;;;;5.93;1.20;;;;;;;;;;6149298;23;20025;-89
2023/12/30 09:26:26;;;;;;;5.57;1.80;;;;;;;;;;6129980;23;20644;-89
2023/12/30 09:28:53;;;;;;;7.10;1.90;;;;;;;;;;6129224;23;20025;-89
2023/12/30 09:31:22;;;;;;;5.35;1.60;;;;;;;;;;6152279;23;20083;-89
2023/12/30 09:33:49;;;;;;;13.48;2.95;;;;;;;;;;6153349;23;20016;-89
2023/12/30 09:36:20;;;;;;;11.77;1.90;;;;;;;;;;6153641;23;20546;-88
2023/12/30 09:38:47;;;;;;;3.00;1.63;;;;;;;;;;6156742;23;20365;-89
2023/12/30 09:41:15;;;;;;;10.75;1.88;;;;;;;;;;6155002;23;20021;-89
2023/12/30 09:43:42;;;;;;;7.53;1.55;;;;;;;;;;6130178;23;20130;-88
2023/12/30 09:46:08;;;;;;;6.47;1.75;;;;;;;;;;6151116;23;20012;-89
2023/12/30 09:48:33;;;;;;;6.43;1.48;;;;;;;;;;6155880;23;20043;-89
2023/12/30 09:50:59;;;;;;;5.05;1.20;;;;;;;;;;6128727;23;20017;-89
2023/12/30 09:53:26;;;;;;;7.20;1.13;;;;;;;;;;6153334;23;20016;-88
2023/12/30 09:55:52;;;;;;;6.50;1.40;;;;;;;;;;6156457;23;20028;-89
2023/12/30 09:58:19;;;;;;;6.60;1.10;;;;;;;;;;6154212;23;20420;-89
2023/12/30 10:00:45;;;;;;;5.35;1.30;;;;;;;;;;6156252;23;20008;-89
2023/12/30 10:03:11;;;;;;;2.67;0.90;;;;;;;;;;6129832;23;20096;-90
2023/12/30 10:05:37;;;;;;;10.45;1.40;;;;;;;;;;6131031;23;20012;-90
2023/12/30 10:08:03;;;;;;;3.90;1.23;;;;;;;;;;6129822;23;20058;-89
2023/12/30 10:10:45;;;;;;;3.15;1.10;;;;;;;;;;6126450;23;20509;-89
2023/12/30 10:13:15;;;;;;;4.57;1.50;;;;;;;;;;6152771;23;20031;-89
2023/12/30 10:15:41;;;;;;;9.20;1.40;;;;;;;;;;6131971;23;20028;-91
2023/12/30 10:18:08;;;;;;;5.82;1.60;;;;;;;;;;6128174;23;20020;-89
2023/12/30 10:20:38;;;;;;;3.13;1.17;;;;;;;;;;6129793;23;20024;-90
2023/12/30 10:23:04;;;;;;;9.50;1.83;;;;;;;;;;6154336;23;20052;-89
2023/12/30 10:25:30;;;;;;;4.93;1.13;;;;;;;;;;6130493;23;20013;-89
2023/12/30 10:27:56;;;;;;;5.10;1.65;;;;;;;;;;6155395;23;20497;-90
2023/12/30 10:30:22;;;;;;;5.82;1.80;;;;;;;;;;6155624;23;20063;-88
2023/12/30 10:32:48;;;;;;;3.97;1.50;;;;;;;;;;6128689;23;20024;-90
2023/12/30 10:35:14;;;;;;;9.38;2.38;;;;;;;;;;6152602;23;20025;-90
2023/12/30 10:37:43;;;;;;;6.55;1.80;;;;;;;;;;6154421;23;20319;-89
2023/12/30 10:40:10;;;;;;;6.80;1.83;;;;;;;;;;6128051;23;20052;-90
2023/12/30 10:42:44;;;;;;;7.85;1.70;;;;;;;;;;6129157;23;20017;-89
2023/12/30 10:45:11;;;;;;;6.28;2.03;;;;;;;;;;6126298;23;20090;-90
2023/12/30 10:47:41;;;;;;;5.13;2.03;;;;;;;;;;6134551;23;20032;-89
2023/12/30 10:50:09;;;;;;;10.57;2.28;;;;;;;;;;6161506;23;20020;-89
2023/12/30 10:52:52;;;;;;;6.10;2.42;;;;;;;;;;6165366;23;20579;-89
2023/12/30 10:55:19;;;;;;;9.05;3.15;;;;;;;;;;6131817;23;20021;-89
2023/12/30 10:57:50;;;;;;;6.63;3.25;;;;;;;;;;6154692;23;20020;-89
2023/12/30 11:00:20;;;;;;;6.93;2.65;;;;;;;;;;6151782;23;20031;-89
2023/12/30 11:02:47;;;;;;;8.27;3.05;;;;;;;;;;6129473;23;20024;-89
2023/12/30 11:05:17;;;;;;;9.60;3.53;;;;;;;;;;6127794;23;20016;-90
2023/12/30 11:07:44;;;;;;;9.35;3.83;;;;;;;;;;6156854;23;20528;-89
2023/12/30 11:10:18;;;;;;;9.45;3.90;;;;;;;;;;6154522;23;20070;-89
2023/12/30 11:12:46;;;;;;;8.45;3.72;;;;;;;;;;6128232;23;20103;-88
2023/12/30 11:15:29;;;;;;;10.50;3.73;;;;;;;;;;6177943;23;20027;-89
2023/12/30 11:17:57;;;;;;;12.68;2.78;;;;;;;;;;6129481;23;20025;-89
2023/12/30 11:20:32;;;;;;;14.88;4.65;;;;;;;;;;6127636;23;20031;-89
2023/12/30 11:22:59;;;;;;;9.60;3.67;;;;;;;;;;6124734;23;20089;-89
2023/12/30 11:25:40;;;;;;;7.35;3.42;;;;;;;;;;6128920;23;20020;-89
2023/12/30 11:28:20;;;;;;;8.23;3.40;;;;;;;;;;6150887;23;20025;-89
2023/12/30 11:30:51;;;;;;;10.50;3.50;;;;;;;;;;6151729;23;20508;-89
2023/12/30 11:33:17;;;;;;;6.85;3.20;;;;;;;;;;6126045;23;20089;-89
2023/12/30 11:35:44;;;;;;;13.50;3.05;;;;;;;;;;6149466;23;20394;-88
2023/12/30 11:38:11;;;;;;;7.85;3.47;;;;;;;;;;6125223;23;20020;-89
2023/12/30 11:40:41;;;;;;;10.15;3.30;;;;;;;;;;6151276;23;20009;-90
2023/12/30 11:43:08;;;;;;;9.07;2.95;;;;;;;;;;6149575;23;20016;-90
2023/12/30 11:45:34;;;;;;;10.82;2.80;;;;;;;;;;6125456;23;20035;-91
2023/12/30 11:48:00;;;;;;;7.70;3.13;;;;;;;;;;6125619;23;20510;-90
2023/12/30 11:50:26;;;;;;;7.68;2.60;;;;;;;;;;6128204;23;20394;-90
2023/12/30 11:52:52;;;;;;;7.95;2.65;;;;;;;;;;6126585;23;20024;-90
2023/12/30 11:55:32;;;;;;;4.25;2.28;;;;;;;;;;6126046;23;20024;-90
2023/12/30 12:02:24;;;;;;;;;;;;;;;;;;;;;
2023/12/30 12:05:33;;;;;;;6.30;2.03;;;;;;;;;;6114918;23;20026;-90
2023/12/30 12:08:22;;;;;;;;;;;;;;;;;;;;;
2023/12/30 12:14:37;;;;;;;;;;;;;;;;;;;;;
2023/12/30 12:17:53;;;;;;;6.60;2.10;;;;;;;;;;5932052;23;20498;-90
2023/12/30 12:24:44;;;;;;;5.15;1.80;;;;;;;;;;5977532;24;20381;-90
2023/12/30 12:27:36;;;;;;;7.93;2.15;;;;;;;;;;5892193;24;20043;-91
2023/12/30 12:30:57;;;;;;;6.75;2.80;;;;;;;;;;5977635;23;20129;-90
2023/12/30 12:33:38;;;;;;;10.35;3.08;;;;;;;;;;6030573;23;20054;-89
2023/12/30 12:36:58;;;;;;;6.10;2.47;;;;;;;;;;6061330;23;20022;-90
2023/12/30 12:43:52;;;;;;;;;;;;;;;;;;;;;
2023/12/30 13:03:13;;;;;;;;;;;;;;;;;;;;;
2023/12/30 13:06:22;;;;;;;9.75;2.65;;;;;;;;;;6103248;23;20022;-90
2023/12/30 13:12:49;;;;;;;;;;;;;;;;;;;;;
2023/12/30 13:15:20;;;;;;;8.63;2.67;;;;;;;;;;5979878;23;20027;-91
2023/12/30 13:17:46;;;;;;;10.15;3.55;;;;;;;;;;6038416;23;20018;-91
2023/12/30 13:20:12;;;;;;;9.63;3.45;;;;;;;;;;6060565;23;20097;-91
2023/12/30 13:22:38;;;;;;;12.85;3.30;;;;;;;;;;6087376;23;20028;-90
2023/12/30 13:25:05;;;;;;;12.35;3.30;;;;;;;;;;6060474;23;20040;-90
2023/12/30 13:27:32;;;;;;;10.73;3.78;;;;;;;;;;6063930;23;20130;-90
2023/12/30 13:29:58;;;;;;;11.85;2.97;;;;;;;;;;6062317;23;20348;-90
2023/12/30 13:32:27;;;;;;;10.18;2.97;;;;;;;;;;6064563;23;20029;-91
2023/12/30 13:34:55;;;;;;;13.32;2.75;;;;;;;;;;6065154;23;20068;-90
2023/12/30 13:37:22;;;;;;;10.52;3.30;;;;;;;;;;6064062;23;20096;-90
2023/12/30 13:39:48;;;;;;;8.18;3.38;;;;;;;;;;6062948;23;20091;-91
2023/12/30 13:42:15;;;;;;;9.13;3.10;;;;;;;;;;6074786;23;20937;-91
2023/12/30 13:44:42;;;;;;;10.40;3.63;;;;;;;;;;6128660;23;20337;-90
2023/12/30 13:52:38;;;;;;;9.85;3.17;;;;;;;;;;6158838;23;20052;-90
2023/12/30 13:55:15;;;;;;;9.73;3.17;;;;;;;;;;6127896;23;20020;-90
2023/12/30 13:57:42;;;;;;;10.27;3.38;;;;;;;;;;6132721;23;20017;-91
2023/12/30 14:00:08;;;;;;;13.77;3.65;;;;;;;;;;6127560;23;20664;-90
2023/12/30 14:02:38;;;;;;;15.35;3.95;;;;;;;;;;6155366;23;20063;-90
2023/12/30 14:05:17;;;;;;;11.02;3.97;;;;;;;;;;6153231;23;20384;-90
2023/12/30 14:07:43;;;;;;;8.88;4.30;;;;;;;;;;6132897;23;20517;-91
2023/12/30 14:10:12;;;;;;;15.90;4.53;;;;;;;;;;6151456;23;20350;-91
2023/12/30 14:12:39;;;;;;;;;;;;;;;;;;6127947;23;20024;-91
2023/12/30 14:15:11;;;;;;;12.93;4.57;;;;;;;;;;6150643;23;19912;-91
2023/12/30 14:17:37;;;;;;;15.35;4.40;;;;;;;;;;6130847;23;20021;-90
2023/12/30 14:20:04;;;;;;;11.38;4.15;;;;;;;;;;6121993;23;20013;-91
2023/12/30 14:22:33;;;;;;;16.75;3.92;;;;;;;;;;6122172;23;20350;-92
2023/12/30 15:03:33;;;;;;;12.68;4.75;;;;;;;;;;6213372;22;20084;-86
2023/12/30 15:06:12;;;;;;;15.25;5.28;;;;;;;;;;6232942;22;20096;-87
2023/12/30 15:08:41;;;;;;;14.77;5.15;;;;;;;;;;6208098;22;20026;-87
2023/12/30 15:11:09;;;;;;;11.32;4.90;;;;;;;;;;6232941;22;20566;-87
2023/12/30 16:40:20;;;;;;;18.25;8.50;;;;;;;;;;6245071;22;20458;-88
2023/12/30 16:42:51;;;;;;;22.35;8.77;;;;;;;;;;6185816;22;20042;-88
2023/12/30 16:45:21;;;;;;;18.77;7.63;;;;;;;;;;6179676;22;20019;-89
2023/12/30 16:47:48;;;;;;;22.33;8.85;;;;;;;;;;6184619;22;20541;-88
2023/12/30 16:50:18;;;;;;;21.40;8.35;;;;;;;;;;6203967;22;20734;-89
2023/12/30 18:40:16;;;;;;;11.07;7.63;;;;;;;;;;6258909;22;20028;-88
2023/12/30 18:43:11;;;;;;;;;;;;;;;;;;;;;
2023/12/30 18:48:54;;;;;;;11.43;5.43;;;;;;;;;;6133752;23;20357;-89
2023/12/30 18:51:53;;;;;;;14.55;6.18;;;;;;;;;;6068420;23;20568;-89
2023/12/30 18:54:28;;;;;;;13.57;7.50;;;;;;;;;;6201264;22;20031;-89
2023/12/30 18:56:58;;;;;;;14.50;7.10;;;;;;;;;;6186875;22;20482;-89
2023/12/30 18:59:24;;;;;;;17.33;8.05;;;;;;;;;;6237200;22;20023;-89
2023/12/30 19:02:04;;;;;;;14.75;7.13;;;;;;;;;;6185761;22;20091;-90
2023/12/30 19:04:47;;;;;;;13.02;6.13;;;;;;;;;;6189873;22;20494;-90
2023/12/30 19:07:35;;;;;;;16.02;7.57;;;;;;;;;;6233149;22;20077;-90
2023/12/30 19:10:10;;;;;;;13.68;6.63;;;;;;;;;;6209407;22;20016;-90
2023/12/30 19:18:47;;;;;;;10.13;6.18;;;;;;;;;;6182161;23;20031;-91
2023/12/30 19:32:08;;;;;;;10.38;4.88;;;;;;;;;;5983723;23;20491;-90
2023/12/30 19:34:51;;;;;;;12.25;4.78;;;;;;;;;;6018584;23;20018;-90
2023/12/30 19:37:23;;;;;;;10.60;6.70;;;;;;;;;;5982755;23;20487;-89
2023/12/30 19:40:45;;;;;;;;;;;;;;;;;;;;;
2023/12/30 19:43:36;;;;;;;18.65;5.88;;;;;;;;;;6049701;23;20036;-89
2023/12/30 19:53:23;;;;;;;;;;;;;;;;;;;;;
2023/12/30 19:56:04;;;;;;;13.23;6.60;;;;;;;;;;6086066;23;20395;-88
2023/12/30 19:58:43;;;;;;;20.23;10.18;;;;;;;;;;6106547;23;20027;-89
2023/12/30 20:01:16;;;;;;;17.00;7.78;;;;;;;;;;6155787;23;20397;-89
2023/12/30 20:03:42;;;;;;;13.10;5.78;;;;;;;;;;6208428;23;20015;-89